Time;durP1;ratioP1;P1;durP2;ratioP2;P2;SDS_P1;SDS_P2;PMS_P1;PMS_P2;Temp;Humidity;BMP_temperature;BMP_pressure;BME280_temperature;BME280_humidity;BME280_pressure;Samples;Min_cycle;Max_cycle;Signal;HPM_P1;HPM_P2
2022/04/12 00:00:34;;;;;;;56.25;28.65;;;;;;;;;;4923870;29;20344;-92
2022/04/12 00:03:01;;;;;;;59.03;28.65;;;;;;;;;;4923831;29;20092;-92
2022/04/12 00:05:27;;;;;;;61.42;30.17;;;;;;;;;;4923779;29;20144;-91
2022/04/12 00:07:53;;;;;;;80.00;37.33;;;;;;;;;;4923620;29;20170;-92
2022/04/12 00:10:19;;;;;;;82.20;40.97;;;;;;;;;;4907195;29;20040;-91
2022/04/12 00:12:46;;;;;;;98.38;46.75;;;;;;;;;;4923591;29;20059;-91
2022/04/12 00:15:12;;;;;;;116.13;52.33;;;;;;;;;;4923724;29;20019;-91
2022/04/12 00:20:43;;;;;;;131.07;54.63;;;;;;;;;;4923577;29;20058;-92
2022/04/12 00:23:11;;;;;;;106.53;46.00;;;;;;;;;;4923413;29;20035;-92
2022/04/12 00:25:37;;;;;;;92.75;41.70;;;;;;;;;;4923325;29;20107;-92
2022/04/12 00:28:03;;;;;;;94.38;44.05;;;;;;;;;;4923644;29;20040;-91
2022/04/12 00:30:30;;;;;;;99.10;43.03;;;;;;;;;;4906835;29;20040;-92
2022/04/12 00:32:56;;;;;;;73.47;36.38;;;;;;;;;;4906628;29;20088;-91
2022/04/12 00:35:23;;;;;;;70.13;32.13;;;;;;;;;;4923453;29;20063;-91
2022/04/12 00:37:53;;;;;;;65.88;31.48;;;;;;;;;;4923572;29;20024;-91
2022/04/12 00:40:20;;;;;;;63.13;30.90;;;;;;;;;;4923279;29;20032;-92
2022/04/12 00:42:46;;;;;;;55.72;28.85;;;;;;;;;;4906463;29;20024;-92
2022/04/12 00:45:15;;;;;;;58.53;28.55;;;;;;;;;;4906474;29;20048;-93
2022/04/12 00:47:41;;;;;;;54.67;28.40;;;;;;;;;;4906390;29;20052;-94
2022/04/12 00:50:09;;;;;;;60.97;27.80;;;;;;;;;;4906292;29;20072;-92
2022/04/12 00:52:36;;;;;;;51.90;26.08;;;;;;;;;;4923153;29;20059;-92
2022/04/12 00:55:05;;;;;;;48.65;25.13;;;;;;;;;;4923040;29;20032;-92
2022/04/12 00:57:32;;;;;;;52.90;25.27;;;;;;;;;;4906351;29;20339;-93
2022/04/12 01:00:00;;;;;;;45.25;24.15;;;;;;;;;;4906167;29;20135;-92
2022/04/12 01:02:26;;;;;;;42.05;22.65;;;;;;;;;;4923016;29;20407;-92
2022/04/12 01:04:52;;;;;;;43.28;22.58;;;;;;;;;;4922643;29;20028;-92
2022/04/12 01:07:19;;;;;;;45.10;22.02;;;;;;;;;;4923022;29;20028;-92
2022/04/12 01:09:46;;;;;;;39.25;21.25;;;;;;;;;;4905978;29;20028;-92
2022/04/12 01:12:12;;;;;;;41.95;21.38;;;;;;;;;;4905904;29;20063;-92
2022/04/12 01:14:39;;;;;;;42.75;21.83;;;;;;;;;;4905976;29;20423;-93
2022/04/12 01:17:05;;;;;;;48.67;23.88;;;;;;;;;;4922840;29;20080;-93
2022/04/12 01:19:32;;;;;;;52.75;26.00;;;;;;;;;;4921492;29;20032;-94
2022/04/12 01:22:09;;;;;;;46.63;23.70;;;;;;;;;;4906110;29;20047;-91
2022/04/12 01:24:35;;;;;;;51.40;23.65;;;;;;;;;;4922440;29;20023;-92
2022/04/12 01:27:01;;;;;;;43.83;22.13;;;;;;;;;;4922326;29;20072;-92
2022/04/12 01:29:32;;;;;;;40.60;22.05;;;;;;;;;;4922532;29;20028;-92
2022/04/12 01:31:58;;;;;;;46.15;22.38;;;;;;;;;;4922629;29;20323;-93
2022/04/12 01:34:24;;;;;;;47.00;23.27;;;;;;;;;;4922260;29;20418;-94
2022/04/12 01:36:50;;;;;;;39.03;22.00;;;;;;;;;;4905451;29;20032;-93
2022/04/12 01:39:16;;;;;;;124.13;44.78;;;;;;;;;;4905401;29;20075;-92
2022/04/12 01:41:42;;;;;;;83.45;34.63;;;;;;;;;;4922415;29;20040;-94
2022/04/12 01:44:08;;;;;;;74.45;32.22;;;;;;;;;;4922064;29;20035;-92
2022/04/12 01:46:34;;;;;;;68.57;30.92;;;;;;;;;;4922014;29;20407;-92
2022/04/12 01:49:00;;;;;;;60.75;28.83;;;;;;;;;;4922143;29;20335;-92
2022/04/12 01:51:28;;;;;;;60.50;26.73;;;;;;;;;;4922001;29;20046;-92
2022/04/12 01:53:54;;;;;;;53.03;26.52;;;;;;;;;;4921834;29;20052;-93
2022/04/12 01:56:20;;;;;;;46.28;22.77;;;;;;;;;;4921950;29;20338;-93
2022/04/12 01:58:46;;;;;;;56.22;26.15;;;;;;;;;;4921647;29;20064;-93
2022/04/12 02:01:12;;;;;;;56.03;25.40;;;;;;;;;;4921634;29;20028;-92
2022/04/12 02:03:38;;;;;;;43.53;22.25;;;;;;;;;;4921811;29;20111;-92
2022/04/12 02:09:07;;;;;;;31.25;18.70;;;;;;;;;;4921626;29;20047;-94
2022/04/12 02:11:34;;;;;;;32.28;18.63;;;;;;;;;;4921775;29;20134;-94
2022/04/12 02:14:00;;;;;;;30.02;16.92;;;;;;;;;;4921888;29;20331;-92
2022/04/12 02:16:26;;;;;;;27.40;17.27;;;;;;;;;;4921645;29;20028;-92
2022/04/12 02:18:52;;;;;;;27.58;16.67;;;;;;;;;;4921317;29;20024;-92
2022/04/12 02:21:18;;;;;;;26.55;15.45;;;;;;;;;;4921716;29;20030;-92
2022/04/12 02:23:44;;;;;;;25.95;16.73;;;;;;;;;;4921442;29;20391;-94
2022/04/12 02:26:10;;;;;;;31.50;16.77;;;;;;;;;;4921426;29;20095;-91
2022/04/12 02:28:36;;;;;;;26.15;16.08;;;;;;;;;;4921695;29;20024;-93
2022/04/12 02:31:02;;;;;;;31.55;16.65;;;;;;;;;;4904513;29;20028;-93
2022/04/12 02:33:28;;;;;;;30.10;16.88;;;;;;;;;;4920971;29;20075;-92
2022/04/12 02:35:54;;;;;;;31.52;17.60;;;;;;;;;;4921292;29;20032;-92
2022/04/12 02:38:20;;;;;;;35.30;17.88;;;;;;;;;;4921365;29;20028;-92
2022/04/12 02:40:47;;;;;;;32.00;18.65;;;;;;;;;;4921136;29;20036;-92
2022/04/12 02:43:13;;;;;;;30.95;16.38;;;;;;;;;;4920981;29;20151;-93
2022/04/12 02:45:39;;;;;;;27.35;16.98;;;;;;;;;;4904693;29;20021;-92
2022/04/12 02:48:06;;;;;;;27.70;16.33;;;;;;;;;;4921357;29;20024;-92
2022/04/12 02:50:32;;;;;;;28.10;15.80;;;;;;;;;;4921385;29;20051;-93
2022/04/12 02:52:58;;;;;;;25.02;15.80;;;;;;;;;;4921420;29;20028;-91
2022/04/12 02:55:24;;;;;;;21.90;14.27;;;;;;;;;;4921181;29;20036;-92
2022/04/12 02:57:50;;;;;;;24.95;14.23;;;;;;;;;;4920837;29;20419;-92
2022/04/12 03:00:16;;;;;;;25.08;14.25;;;;;;;;;;4921436;29;20028;-93
2022/04/12 03:02:42;;;;;;;22.63;14.57;;;;;;;;;;4921366;29;20048;-91
2022/04/12 03:05:09;;;;;;;26.20;14.52;;;;;;;;;;4904372;29;20024;-92
2022/04/12 03:07:36;;;;;;;24.08;14.50;;;;;;;;;;4921061;29;20035;-92
2022/04/12 03:10:02;;;;;;;23.55;14.48;;;;;;;;;;4904432;29;20506;-93
2022/04/12 03:12:29;;;;;;;23.67;14.52;;;;;;;;;;4904264;29;20052;-93
2022/04/12 03:14:55;;;;;;;32.22;15.68;;;;;;;;;;4921216;29;20035;-95
2022/04/12 03:17:21;;;;;;;29.10;17.00;;;;;;;;;;4921008;29;20115;-93
2022/04/12 03:19:47;;;;;;;27.67;15.88;;;;;;;;;;4903967;29;20042;-91
2022/04/12 03:22:14;;;;;;;27.90;16.70;;;;;;;;;;4920972;29;20030;-91
2022/04/12 03:24:40;;;;;;;27.10;15.30;;;;;;;;;;4920830;29;20028;-92
2022/04/12 03:27:06;;;;;;;29.50;15.32;;;;;;;;;;4921070;29;20031;-92
2022/04/12 03:29:32;;;;;;;24.67;14.80;;;;;;;;;;4920103;29;20032;-91
2022/04/12 03:31:59;;;;;;;24.33;15.07;;;;;;;;;;4920818;29;20395;-93
2022/04/12 03:34:25;;;;;;;30.23;15.73;;;;;;;;;;4904205;29;20047;-92
2022/04/12 03:36:51;;;;;;;23.13;13.77;;;;;;;;;;4921122;29;20032;-94
2022/04/12 03:39:21;;;;;;;29.80;14.88;;;;;;;;;;4900396;29;20067;-92
2022/04/12 03:41:47;;;;;;;23.70;14.55;;;;;;;;;;4901976;29;20044;-92
2022/04/12 03:44:14;;;;;;;25.50;14.07;;;;;;;;;;4913526;29;20024;-93
2022/04/12 03:46:40;;;;;;;24.25;13.68;;;;;;;;;;4904684;29;20040;-93
2022/04/12 03:49:06;;;;;;;28.55;14.00;;;;;;;;;;4917311;29;20319;-96
2022/04/12 03:51:32;;;;;;;21.98;13.85;;;;;;;;;;4907542;29;20044;-95
2022/04/12 03:53:58;;;;;;;23.02;13.20;;;;;;;;;;4924474;29;20034;-94
2022/04/12 03:56:25;;;;;;;26.02;12.88;;;;;;;;;;4923957;29;20028;-96
2022/04/12 03:58:51;;;;;;;31.90;13.30;;;;;;;;;;4924132;29;20028;-94
2022/04/12 04:01:17;;;;;;;22.35;13.13;;;;;;;;;;4907402;29;20055;-94
2022/04/12 04:03:43;;;;;;;25.80;13.02;;;;;;;;;;4906994;29;20043;-94
2022/04/12 04:06:09;;;;;;;26.58;14.23;;;;;;;;;;4907122;29;20024;-93
2022/04/12 04:08:35;;;;;;;28.90;13.88;;;;;;;;;;4923915;29;20033;-93
2022/04/12 04:11:01;;;;;;;29.77;14.85;;;;;;;;;;4907041;29;20034;-94
2022/04/12 04:13:30;;;;;;;25.67;14.00;;;;;;;;;;4924026;29;20036;-95
2022/04/12 04:15:56;;;;;;;24.85;13.02;;;;;;;;;;4923965;29;20028;-94
2022/04/12 04:18:22;;;;;;;23.40;12.80;;;;;;;;;;4923808;29;20446;-94
2022/04/12 04:20:48;;;;;;;21.48;12.50;;;;;;;;;;4923492;29;20056;-95
2022/04/12 04:23:14;;;;;;;23.38;15.15;;;;;;;;;;4923593;29;20028;-94
2022/04/12 04:25:40;;;;;;;29.98;15.60;;;;;;;;;;4905977;29;20048;-94
2022/04/12 04:28:10;;;;;;;36.92;16.15;;;;;;;;;;4923214;29;20020;-95
2022/04/12 04:30:38;;;;;;;32.22;18.08;;;;;;;;;;4923460;29;20028;-94
2022/04/12 04:33:04;;;;;;;29.75;17.38;;;;;;;;;;4906699;29;20032;-94
2022/04/12 04:35:31;;;;;;;32.90;19.05;;;;;;;;;;4923150;29;20036;-94
2022/04/12 04:37:57;;;;;;;39.90;19.13;;;;;;;;;;4906607;29;20032;-95
2022/04/12 04:40:23;;;;;;;31.60;19.45;;;;;;;;;;4923076;29;20040;-94
2022/04/12 04:42:52;;;;;;;32.80;17.33;;;;;;;;;;4923430;29;20359;-93
2022/04/12 04:45:18;;;;;;;38.40;16.67;;;;;;;;;;4923440;29;20156;-95
2022/04/12 04:47:51;;;;;;;36.03;15.00;;;;;;;;;;4923247;29;20024;-95
2022/04/12 04:50:18;;;;;;;21.83;13.48;;;;;;;;;;4923238;29;20048;-94
2022/04/12 04:52:45;;;;;;;26.70;13.95;;;;;;;;;;4923252;29;20028;-94
2022/04/12 04:55:11;;;;;;;21.00;12.15;;;;;;;;;;4922635;29;20036;-95
2022/04/12 04:57:43;;;;;;;23.23;13.77;;;;;;;;;;4922966;29;20042;-94
2022/04/12 05:00:15;;;;;;;37.70;19.30;;;;;;;;;;4923124;29;20107;-95
2022/04/12 05:02:48;;;;;;;38.50;18.40;;;;;;;;;;4922905;29;20047;-94
2022/04/12 05:05:14;;;;;;;27.27;15.95;;;;;;;;;;4906210;29;20123;-95
2022/04/12 05:07:42;;;;;;;32.00;15.93;;;;;;;;;;4922795;29;20079;-95
2022/04/12 05:10:08;;;;;;;35.20;17.05;;;;;;;;;;4923064;29;20318;-95
2022/04/12 05:12:35;;;;;;;36.63;19.58;;;;;;;;;;4922978;29;20070;-95
2022/04/12 05:15:01;;;;;;;32.08;17.08;;;;;;;;;;4922636;29;20072;-93
2022/04/12 05:17:27;;;;;;;25.60;13.90;;;;;;;;;;4905652;29;20040;-91
2022/04/12 05:19:56;;;;;;;26.77;14.38;;;;;;;;;;4905824;29;20028;-94
2022/04/12 05:22:22;;;;;;;29.10;15.05;;;;;;;;;;4922308;29;20031;-93
2022/04/12 05:24:49;;;;;;;25.38;15.45;;;;;;;;;;4922291;29;20351;-94
2022/04/12 05:27:15;;;;;;;26.50;15.10;;;;;;;;;;4905777;29;20024;-94
2022/04/12 05:29:42;;;;;;;22.17;12.73;;;;;;;;;;4922413;29;20107;-95
2022/04/12 05:32:09;;;;;;;25.13;13.70;;;;;;;;;;4922692;29;20474;-95
2022/04/12 05:34:36;;;;;;;25.80;13.70;;;;;;;;;;4905914;29;20243;-91
2022/04/12 05:37:03;;;;;;;25.33;14.13;;;;;;;;;;4922921;29;20028;-93
2022/04/12 05:39:29;;;;;;;28.73;13.95;;;;;;;;;;4922296;29;20028;-94
2022/04/12 05:42:00;;;;;;;28.00;13.63;;;;;;;;;;4922408;29;20115;-93
2022/04/12 05:44:26;;;;;;;21.08;12.85;;;;;;;;;;4905539;29;20021;-94
2022/04/12 05:46:52;;;;;;;19.98;12.13;;;;;;;;;;4922050;29;20399;-93
2022/04/12 05:49:19;;;;;;;20.88;11.60;;;;;;;;;;4921709;29;20059;-95
2022/04/12 05:51:45;;;;;;;24.77;11.45;;;;;;;;;;4921947;29;20039;-94
2022/04/12 05:54:11;;;;;;;16.40;10.10;;;;;;;;;;4922090;29;20063;-94
2022/04/12 05:56:37;;;;;;;18.02;10.85;;;;;;;;;;4921941;29;20076;-94
2022/04/12 05:59:06;;;;;;;19.83;11.30;;;;;;;;;;4921774;29;20032;-95
2022/04/12 06:01:32;;;;;;;21.95;12.65;;;;;;;;;;4922145;29;20021;-93
2022/04/12 06:03:58;;;;;;;20.83;11.52;;;;;;;;;;4921929;29;20020;-94
2022/04/12 06:06:24;;;;;;;17.80;10.85;;;;;;;;;;4904598;29;20115;-93
2022/04/12 06:08:51;;;;;;;13.85;9.43;;;;;;;;;;4922058;29;20020;-93
2022/04/12 06:11:17;;;;;;;16.45;9.98;;;;;;;;;;4904914;29;20044;-95
2022/04/12 06:13:43;;;;;;;15.07;9.23;;;;;;;;;;4921728;29;20418;-93
2022/04/12 06:16:09;;;;;;;12.93;8.70;;;;;;;;;;4921819;29;20020;-94
2022/04/12 06:18:35;;;;;;;14.10;8.82;;;;;;;;;;4921651;29;20025;-93
2022/04/12 06:21:01;;;;;;;12.52;7.70;;;;;;;;;;4921393;29;20020;-94
2022/04/12 06:23:28;;;;;;;15.88;8.68;;;;;;;;;;4921585;29;20108;-94
2022/04/12 06:25:54;;;;;;;12.02;8.25;;;;;;;;;;4921574;29;20024;-94
2022/04/12 06:28:21;;;;;;;14.88;8.23;;;;;;;;;;4904750;29;20071;-93
2022/04/12 06:30:50;;;;;;;13.13;8.13;;;;;;;;;;4921291;29;20425;-94
2022/04/12 06:33:16;;;;;;;15.82;9.45;;;;;;;;;;4921526;29;20028;-93
2022/04/12 06:35:42;;;;;;;12.65;8.98;;;;;;;;;;4921327;29;20111;-94
2022/04/12 06:38:10;;;;;;;17.50;10.45;;;;;;;;;;4921371;29;20116;-93
2022/04/12 06:40:36;;;;;;;16.80;10.55;;;;;;;;;;4921264;29;20038;-94
2022/04/12 06:43:03;;;;;;;14.48;9.45;;;;;;;;;;4904762;29;20319;-93
2022/04/12 06:45:29;;;;;;;14.88;9.95;;;;;;;;;;4921150;29;20056;-93
2022/04/12 06:47:56;;;;;;;16.02;10.20;;;;;;;;;;4921278;29;20025;-94
2022/04/12 06:50:22;;;;;;;16.38;10.65;;;;;;;;;;4921048;29;20028;-95
2022/04/12 06:52:49;;;;;;;18.42;11.07;;;;;;;;;;4904762;29;20115;-94
2022/04/12 06:55:18;;;;;;;15.82;10.18;;;;;;;;;;4921425;29;20036;-94
2022/04/12 06:57:44;;;;;;;13.98;9.65;;;;;;;;;;4921219;29;20028;-94
2022/04/12 07:00:10;;;;;;;17.00;11.40;;;;;;;;;;4921053;29;20036;-93
2022/04/12 07:02:37;;;;;;;16.85;10.40;;;;;;;;;;4921275;29;20352;-95
2022/04/12 07:05:04;;;;;;;14.60;8.65;;;;;;;;;;4921106;29;20028;-94
2022/04/12 07:07:30;;;;;;;13.00;8.73;;;;;;;;;;4921024;29;20024;-94
2022/04/12 07:09:56;;;;;;;14.27;8.57;;;;;;;;;;4920914;29;20415;-94
2022/04/12 07:12:26;;;;;;;12.30;8.55;;;;;;;;;;4921231;29;20060;-93
2022/04/12 07:14:52;;;;;;;16.48;7.47;;;;;;;;;;4921175;29;20051;-93
2022/04/12 07:17:18;;;;;;;12.18;7.05;;;;;;;;;;4921993;29;20462;-95
2022/04/12 07:19:45;;;;;;;12.00;6.88;;;;;;;;;;4924574;29;20032;-94
2022/04/12 07:22:11;;;;;;;10.77;6.45;;;;;;;;;;4924627;29;20411;-95
2022/04/12 07:24:37;;;;;;;12.07;7.57;;;;;;;;;;4908037;29;20032;-93
2022/04/12 07:27:03;;;;;;;8.90;5.82;;;;;;;;;;4924642;29;20051;-94
2022/04/12 07:29:30;;;;;;;9.68;6.07;;;;;;;;;;4907876;29;20427;-94
2022/04/12 07:31:57;;;;;;;10.93;6.50;;;;;;;;;;4907875;29;20055;-93
2022/04/12 07:34:23;;;;;;;12.15;6.03;;;;;;;;;;4907813;29;20099;-95
2022/04/12 07:36:53;;;;;;;8.43;6.10;;;;;;;;;;4907802;29;20322;-93
2022/04/12 07:39:20;;;;;;;11.48;6.07;;;;;;;;;;4924425;29;20099;-94
2022/04/12 07:41:47;;;;;;;9.00;5.78;;;;;;;;;;4924165;29;20422;-94
2022/04/12 07:44:14;;;;;;;11.75;6.55;;;;;;;;;;4924125;29;20474;-93
2022/04/12 07:46:40;;;;;;;10.30;6.05;;;;;;;;;;4924301;29;20052;-94
2022/04/12 07:49:06;;;;;;;13.90;6.70;;;;;;;;;;4907608;29;20031;-94
2022/04/12 07:51:32;;;;;;;6.90;4.78;;;;;;;;;;4924105;29;20024;-94
2022/04/12 07:53:58;;;;;;;9.65;5.40;;;;;;;;;;4907527;29;20024;-94
2022/04/12 07:56:25;;;;;;;9.15;5.00;;;;;;;;;;4907486;29;20024;-94
2022/04/12 07:58:51;;;;;;;5.57;3.83;;;;;;;;;;4923744;29;20051;-93
2022/04/12 08:01:17;;;;;;;7.15;4.38;;;;;;;;;;4923973;29;20395;-94
2022/04/12 08:03:43;;;;;;;6.50;4.35;;;;;;;;;;4907363;29;20024;-95
2022/04/12 08:06:09;;;;;;;9.05;4.07;;;;;;;;;;4923825;29;20035;-95
2022/04/12 08:08:35;;;;;;;5.05;3.13;;;;;;;;;;4923877;29;20108;-93
2022/04/12 08:11:02;;;;;;;9.52;3.80;;;;;;;;;;4923674;29;20032;-94
2022/04/12 08:13:28;;;;;;;7.30;3.78;;;;;;;;;;4924169;29;20171;-94
2022/04/12 08:15:54;;;;;;;5.78;3.28;;;;;;;;;;4923787;29;20028;-93
2022/04/12 08:18:20;;;;;;;6.85;3.83;;;;;;;;;;4923691;29;20040;-93
2022/04/12 08:20:49;;;;;;;8.52;4.47;;;;;;;;;;4923574;29;20047;-94
2022/04/12 08:23:15;;;;;;;7.47;4.65;;;;;;;;;;4923554;29;20068;-94
2022/04/12 08:25:42;;;;;;;9.95;5.65;;;;;;;;;;4923661;29;20030;-95
2022/04/12 08:28:08;;;;;;;8.18;4.50;;;;;;;;;;4906420;29;20036;-94
2022/04/12 08:30:34;;;;;;;12.77;5.88;;;;;;;;;;4907029;29;20028;-95
2022/04/12 08:33:02;;;;;;;14.13;5.90;;;;;;;;;;4909108;29;20039;-95
2022/04/12 08:35:28;;;;;;;10.48;6.00;;;;;;;;;;4929083;29;20052;-92
2022/04/12 08:37:55;;;;;;;7.00;4.35;;;;;;;;;;4923514;29;20032;-93
2022/04/12 08:40:21;;;;;;;6.10;3.58;;;;;;;;;;4922228;29;20036;-92
2022/04/12 08:42:48;;;;;;;10.80;6.00;;;;;;;;;;4893652;29;20052;-92
2022/04/12 08:45:14;;;;;;;15.98;6.03;;;;;;;;;;4923108;29;20043;-93
2022/04/12 08:47:41;;;;;;;13.82;4.63;;;;;;;;;;4906525;29;20379;-92
2022/04/12 08:50:08;;;;;;;9.13;5.13;;;;;;;;;;4923240;29;20032;-93
2022/04/12 08:52:35;;;;;;;8.15;4.25;;;;;;;;;;4922966;29;20160;-94
2022/04/12 08:55:01;;;;;;;8.57;4.15;;;;;;;;;;4922969;29;20035;-93
2022/04/12 08:57:28;;;;;;;9.63;6.70;;;;;;;;;;4906335;29;20131;-90
2022/04/12 08:59:54;;;;;;;9.48;4.63;;;;;;;;;;4922728;29;20039;-90
2022/04/12 09:02:20;;;;;;;7.88;4.32;;;;;;;;;;4923018;29;20024;-91
2022/04/12 09:04:46;;;;;;;4.88;3.38;;;;;;;;;;4906083;29;20028;-90
2022/04/12 09:07:13;;;;;;;7.85;3.88;;;;;;;;;;4922736;29;20031;-91
2022/04/12 09:09:40;;;;;;;8.50;4.50;;;;;;;;;;4906266;29;20131;-91
2022/04/12 09:12:09;;;;;;;8.40;3.72;;;;;;;;;;4922756;29;20055;-90
2022/04/12 09:14:46;;;;;;;7.07;4.07;;;;;;;;;;4922909;29;20115;-90
2022/04/12 09:17:19;;;;;;;7.35;4.28;;;;;;;;;;4922578;29;20043;-91
2022/04/12 09:19:46;;;;;;;7.95;4.15;;;;;;;;;;4922351;29;20043;-91
2022/04/12 09:22:16;;;;;;;6.32;3.85;;;;;;;;;;4922439;29;20024;-91
2022/04/12 09:24:58;;;;;;;5.85;3.22;;;;;;;;;;4906071;29;20080;-91
2022/04/12 09:27:26;;;;;;;7.10;3.88;;;;;;;;;;4922795;29;20035;-90
2022/04/12 09:29:53;;;;;;;8.10;4.20;;;;;;;;;;4922331;29;20060;-90
2022/04/12 09:32:20;;;;;;;5.85;3.70;;;;;;;;;;4921492;29;20032;-92
2022/04/12 09:34:46;;;;;;;8.38;4.03;;;;;;;;;;4921621;29;20059;-91
2022/04/12 09:37:31;;;;;;;8.32;4.13;;;;;;;;;;4921281;29;20466;-90
2022/04/12 09:40:00;;;;;;;7.00;3.35;;;;;;;;;;4921473;29;20036;-91
2022/04/12 09:42:45;;;;;;;7.82;3.20;;;;;;;;;;4905494;29;20115;-92
2022/04/12 09:45:16;;;;;;;6.68;3.45;;;;;;;;;;4922498;29;20016;-92
2022/04/12 09:47:42;;;;;;;5.63;2.92;;;;;;;;;;4922159;29;20036;-91
2022/04/12 09:50:10;;;;;;;4.13;2.90;;;;;;;;;;4905247;29;20123;-91
2022/04/12 09:52:36;;;;;;;4.25;2.95;;;;;;;;;;4922098;29;20027;-92
2022/04/12 09:55:02;;;;;;;8.40;3.83;;;;;;;;;;4922103;29;20446;-92
2022/04/12 09:57:28;;;;;;;4.40;3.13;;;;;;;;;;4905251;29;20032;-91
2022/04/12 09:59:56;;;;;;;8.48;3.30;;;;;;;;;;4905046;29;20064;-91
2022/04/12 10:02:25;;;;;;;5.50;3.30;;;;;;;;;;4921742;29;20028;-93
2022/04/12 10:04:52;;;;;;;7.05;3.80;;;;;;;;;;4921746;29;20427;-94
2022/04/12 10:07:20;;;;;;;8.15;3.67;;;;;;;;;;4921780;29;20051;-92
2022/04/12 10:09:46;;;;;;;6.70;3.83;;;;;;;;;;4921659;29;20478;-92
2022/04/12 10:12:13;;;;;;;7.03;4.15;;;;;;;;;;4904727;29;20327;-91
2022/04/12 10:14:39;;;;;;;8.85;4.72;;;;;;;;;;4921653;29;20024;-92
2022/04/12 10:17:05;;;;;;;5.10;3.55;;;;;;;;;;4921742;29;20036;-92
2022/04/12 10:19:36;;;;;;;7.57;3.90;;;;;;;;;;4904873;29;20036;-92
2022/04/12 10:22:04;;;;;;;6.97;4.05;;;;;;;;;;4904922;29;20441;-92
2022/04/12 10:24:31;;;;;;;6.55;3.92;;;;;;;;;;4904940;29;20042;-91
2022/04/12 10:26:57;;;;;;;4.85;3.72;;;;;;;;;;4904894;29;20028;-92
2022/04/12 10:29:23;;;;;;;5.85;3.58;;;;;;;;;;4920006;29;20024;-94
2022/04/12 10:31:55;;;;;;;10.82;4.07;;;;;;;;;;4903504;29;20025;-92
2022/04/12 10:34:22;;;;;;;5.25;3.35;;;;;;;;;;4903944;29;20059;-92
2022/04/12 10:37:04;;;;;;;5.80;4.15;;;;;;;;;;4904363;29;20020;-91
2022/04/12 10:39:30;;;;;;;7.80;3.95;;;;;;;;;;4921441;29;20083;-91
2022/04/12 10:41:57;;;;;;;5.53;3.75;;;;;;;;;;4904781;29;20195;-92
2022/04/12 10:44:25;;;;;;;9.90;3.92;;;;;;;;;;4920975;29;20410;-91
2022/04/12 10:46:51;;;;;;;7.60;3.38;;;;;;;;;;4904460;29;20068;-91
2022/04/12 10:49:19;;;;;;;9.00;3.67;;;;;;;;;;4920970;29;20032;-91
2022/04/12 10:51:46;;;;;;;4.78;3.50;;;;;;;;;;4924080;29;20028;-90
2022/04/12 10:54:29;;;;;;;4.45;3.17;;;;;;;;;;4927394;29;20043;-92
2022/04/12 10:57:14;;;;;;;6.55;3.95;;;;;;;;;;4927507;29;20039;-91
2022/04/12 10:59:40;;;;;;;4.88;3.40;;;;;;;;;;4924500;29;20035;-92
2022/04/12 11:02:14;;;;;;;5.35;3.67;;;;;;;;;;4927326;29;20096;-93
2022/04/12 11:04:40;;;;;;;5.22;3.50;;;;;;;;;;4927060;29;20031;-91
2022/04/12 11:07:10;;;;;;;6.97;4.25;;;;;;;;;;4927343;29;20028;-92
2022/04/12 11:09:36;;;;;;;6.13;3.85;;;;;;;;;;4910777;29;20032;-91
2022/04/12 11:12:03;;;;;;;7.82;4.35;;;;;;;;;;4927294;29;20052;-91
2022/04/12 11:14:32;;;;;;;7.47;4.32;;;;;;;;;;4910133;29;20151;-91
2022/04/12 11:17:07;;;;;;;11.80;5.20;;;;;;;;;;4927498;29;20039;-92
2022/04/12 11:19:44;;;;;;;8.23;4.20;;;;;;;;;;4927209;29;20028;-93
2022/04/12 11:22:12;;;;;;;6.22;4.15;;;;;;;;;;4927537;29;20027;-92
2022/04/12 11:24:39;;;;;;;6.05;4.18;;;;;;;;;;4927827;29;20028;-92
2022/04/12 11:27:08;;;;;;;7.40;4.10;;;;;;;;;;4927596;29;20339;-92
2022/04/12 11:29:35;;;;;;;7.72;4.10;;;;;;;;;;4927251;29;20507;-92
2022/04/12 11:32:02;;;;;;;5.28;3.60;;;;;;;;;;4910470;29;20028;-90
2022/04/12 11:34:29;;;;;;;7.28;4.07;;;;;;;;;;4927563;29;20311;-90
2022/04/12 11:36:56;;;;;;;7.53;4.03;;;;;;;;;;4927027;29;20311;-91
2022/04/12 11:39:26;;;;;;;5.80;3.83;;;;;;;;;;4926059;29;20048;-91
2022/04/12 11:42:03;;;;;;;6.35;3.88;;;;;;;;;;4910418;29;20035;-91
2022/04/12 11:44:30;;;;;;;7.97;4.07;;;;;;;;;;4927087;29;20028;-92
2022/04/12 11:47:01;;;;;;;5.88;3.92;;;;;;;;;;4926999;29;20025;-92
2022/04/12 11:49:40;;;;;;;4.90;3.25;;;;;;;;;;4926714;29;20028;-91
2022/04/12 11:52:08;;;;;;;9.60;4.18;;;;;;;;;;4927316;29;20036;-91
2022/04/12 11:54:37;;;;;;;5.30;3.90;;;;;;;;;;4910370;29;20039;-91
2022/04/12 11:57:10;;;;;;;8.48;4.30;;;;;;;;;;4910225;29;20028;-90
2022/04/12 11:59:38;;;;;;;7.45;4.28;;;;;;;;;;4926856;29;20032;-90
2022/04/12 12:02:06;;;;;;;9.18;4.10;;;;;;;;;;4926993;29;20028;-91
2022/04/12 12:04:33;;;;;;;9.82;4.57;;;;;;;;;;4906675;29;20024;-92
2022/04/12 12:07:01;;;;;;;5.22;3.90;;;;;;;;;;4907429;29;20164;-91
2022/04/12 12:09:27;;;;;;;10.00;4.07;;;;;;;;;;4907211;29;20032;-92
2022/04/12 12:11:56;;;;;;;6.43;4.47;;;;;;;;;;4923572;29;20048;-91
2022/04/12 12:14:22;;;;;;;5.97;3.50;;;;;;;;;;4907127;29;20036;-92
2022/04/12 12:17:01;;;;;;;6.63;3.67;;;;;;;;;;4923935;29;20024;-91
2022/04/12 12:19:28;;;;;;;8.38;4.30;;;;;;;;;;4923516;29;20029;-91
2022/04/12 12:21:55;;;;;;;8.43;4.93;;;;;;;;;;4906968;29;20063;-91
2022/04/12 12:24:21;;;;;;;6.20;4.28;;;;;;;;;;4923416;29;20029;-91
2022/04/12 12:26:53;;;;;;;5.70;4.15;;;;;;;;;;4923655;29;20024;-90
2022/04/12 12:29:19;;;;;;;;;;;;;;;;;;4923935;29;20035;-91
2022/04/12 12:31:45;;;;;;;6.63;3.63;;;;;;;;;;4923558;29;19907;-91
2022/04/12 12:34:30;;;;;;;7.22;4.18;;;;;;;;;;4923277;29;20028;-91
2022/04/12 12:37:06;;;;;;;13.48;5.25;;;;;;;;;;4923306;29;20028;-91
2022/04/12 12:39:36;;;;;;;7.68;4.53;;;;;;;;;;4923300;29;20404;-92
2022/04/12 12:42:03;;;;;;;8.07;4.97;;;;;;;;;;4923451;29;20048;-92
2022/04/12 12:44:32;;;;;;;7.28;4.00;;;;;;;;;;4923382;29;20410;-91
2022/04/12 12:47:02;;;;;;;5.15;3.58;;;;;;;;;;4923414;29;20072;-91
2022/04/12 12:49:36;;;;;;;6.97;4.07;;;;;;;;;;4923186;29;20032;-92
2022/04/12 12:52:04;;;;;;;5.72;3.55;;;;;;;;;;4923333;29;20028;-91
2022/04/12 12:54:30;;;;;;;5.13;3.60;;;;;;;;;;4923201;29;20072;-92
2022/04/12 12:56:56;;;;;;;6.15;3.85;;;;;;;;;;4923206;29;20052;-92
2022/04/12 12:59:27;;;;;;;5.90;3.60;;;;;;;;;;4922559;29;20079;-90
2022/04/12 13:01:54;;;;;;;5.45;3.90;;;;;;;;;;4922984;29;20407;-90
2022/04/12 13:04:24;;;;;;;5.97;3.60;;;;;;;;;;4906263;29;20442;-91
2022/04/12 13:07:00;;;;;;;6.05;3.53;;;;;;;;;;4922788;29;20044;-93
2022/04/12 13:09:26;;;;;;;5.72;3.95;;;;;;;;;;4922685;29;20038;-91
2022/04/12 13:11:52;;;;;;;6.40;3.85;;;;;;;;;;4922645;29;20339;-92
2022/04/12 13:14:18;;;;;;;6.70;3.35;;;;;;;;;;4921856;29;20040;-91
2022/04/12 13:16:44;;;;;;;5.20;3.58;;;;;;;;;;4905635;29;20036;-91
2022/04/12 13:19:10;;;;;;;5.85;4.20;;;;;;;;;;4905832;29;20167;-91
2022/04/12 13:21:36;;;;;;;4.72;3.78;;;;;;;;;;4922929;29;20039;-91
2022/04/12 13:24:02;;;;;;;5.70;3.40;;;;;;;;;;4922648;29;20024;-91
2022/04/12 13:26:28;;;;;;;4.90;3.28;;;;;;;;;;4921948;29;20031;-91
2022/04/12 13:28:54;;;;;;;5.50;3.25;;;;;;;;;;4905858;29;20028;-92
2022/04/12 13:31:20;;;;;;;4.38;3.20;;;;;;;;;;4905761;29;20091;-91
2022/04/12 13:33:47;;;;;;;6.10;3.15;;;;;;;;;;4922210;29;20414;-91
2022/04/12 13:36:13;;;;;;;4.95;3.28;;;;;;;;;;4922459;29;20292;-91
2022/04/12 13:38:39;;;;;;;8.65;3.35;;;;;;;;;;4922660;29;20024;-91
2022/04/12 13:41:05;;;;;;;6.03;3.50;;;;;;;;;;4905501;29;20036;-91
2022/04/12 13:43:31;;;;;;;5.60;3.50;;;;;;;;;;4905284;29;20076;-92
2022/04/12 13:45:57;;;;;;;5.45;3.22;;;;;;;;;;4905643;29;20084;-91
2022/04/12 13:48:23;;;;;;;6.13;3.58;;;;;;;;;;4905499;29;20027;-92
2022/04/12 13:50:51;;;;;;;5.25;3.08;;;;;;;;;;4922085;29;20048;-91
2022/04/12 13:53:17;;;;;;;5.15;3.30;;;;;;;;;;4922124;29;20035;-91
2022/04/12 13:55:43;;;;;;;8.30;4.38;;;;;;;;;;4905353;29;20040;-90
2022/04/12 13:58:09;;;;;;;6.78;4.30;;;;;;;;;;4921920;29;20438;-92
2022/04/12 14:00:35;;;;;;;12.43;4.50;;;;;;;;;;4905318;29;20319;-91
2022/04/12 14:03:02;;;;;;;5.15;3.40;;;;;;;;;;4921903;29;20031;-91
2022/04/12 14:05:28;;;;;;;5.60;3.70;;;;;;;;;;4921755;29;20027;-91
2022/04/12 14:07:57;;;;;;;4.88;3.40;;;;;;;;;;4921919;29;20030;-91
2022/04/12 14:10:23;;;;;;;8.02;3.30;;;;;;;;;;4921613;29;20040;-91
2022/04/12 14:12:49;;;;;;;7.10;4.20;;;;;;;;;;4921362;29;20052;-91
2022/04/12 14:15:15;;;;;;;6.43;3.75;;;;;;;;;;4921656;29;20032;-91
2022/04/12 14:17:41;;;;;;;5.35;3.17;;;;;;;;;;4905085;29;20033;-91
2022/04/12 14:20:08;;;;;;;4.35;3.13;;;;;;;;;;4921474;29;20050;-91
2022/04/12 14:22:35;;;;;;;6.10;3.67;;;;;;;;;;4921458;29;20020;-91
2022/04/12 14:25:01;;;;;;;5.25;3.30;;;;;;;;;;4921468;29;20043;-91
2022/04/12 14:27:27;;;;;;;6.82;3.83;;;;;;;;;;4920805;29;20028;-92
2022/04/12 14:29:53;;;;;;;3.95;3.08;;;;;;;;;;4904933;29;20040;-91
2022/04/12 14:32:19;;;;;;;4.75;2.88;;;;;;;;;;4921669;29;20231;-92
2022/04/12 14:34:45;;;;;;;5.28;3.15;;;;;;;;;;4904654;29;20170;-92
2022/04/12 14:37:11;;;;;;;3.92;3.13;;;;;;;;;;4921528;29;20044;-91